메인 페이지
METAR-TAF:

METAR-TAF

공항 :

창사 황화 국제공항

창사, 중국

위도: 28-11N, 경도: 113-13E, 고도: 66m

현재 날씨관측

예보는 50분 전, 17:00시(UTC)에 발표되었습니다.
여러 방향의 바람 2kt
온도 23°C
습도 94%
기압 1010 hPa
시정: 7000m
고도 700ft 상공 구름 조금

METAR: ZGHA 311700Z VRB01MPS 7000 FEW007 23/22 Q1010 NOSIG

시각: 01:50 (17:50 UTC)

예보

예보는 2 시간 48분 전, 15:02시(UTC)에 발표되었습니다.
예보 대상 시간: 31일 18시부터 01일 18시까지 (UTC)
8kt
시정: 6000m
고도 1100ft 상공 구름 보통
고도 5000ft 상공 흐림
약한비

TAF: ZGHA 311502Z 3118/0118 19004MPS 6000 -RA SCT011 OVC050 TX30/0107Z TN23/3122Z

4,000개 이상의 공항 관측 자료 및 예보 (METAR 및 TAF 보고).

지도상에서 검색 가능한 기상관측소가 노란 점과 빨간 점으로 표시되어 있습니다.

기상관측소 명을 보려면 표시 위로 마우스를 이동하세요.

날씨 관측과 예보를 보려면 클릭하세요.

지도 변경 : 확대하려면 엑스 표시가 있는 녹색 버튼, 축소하려면 빼기 표시가 있는 녹색 버튼, 다음 페이지의 지도를 보려면 녹색 화살표를 클릭하세요.


METAR-TAF: